sensor_id;sensor_type;location;lat;lon;timestamp;P1;durP1;ratioP1;P2;durP2;ratioP2
17993;SDS011;9122;48.406;9.984;2023-03-14T00:01:33;1.90;;;0.70;;
17993;SDS011;9122;48.406;9.984;2023-03-14T00:04:18;0.50;;;0.30;;
17993;SDS011;9122;48.406;9.984;2023-03-14T00:07:03;0.77;;;0.20;;
17993;SDS011;9122;48.406;9.984;2023-03-14T00:09:47;0.50;;;0.20;;
17993;SDS011;9122;48.406;9.984;2023-03-14T00:12:31;0.30;;;0.30;;
17993;SDS011;9122;48.406;9.984;2023-03-14T00:15:16;0.57;;;0.23;;
17993;SDS011;9122;48.406;9.984;2023-03-14T00:18:00;0.63;;;0.30;;
17993;SDS011;9122;48.406;9.984;2023-03-14T00:20:45;1.20;;;0.20;;
17993;SDS011;9122;48.406;9.984;2023-03-14T00:23:30;0.20;;;0.20;;
17993;SDS011;9122;48.406;9.984;2023-03-14T00:26:16;0.43;;;0.43;;
17993;SDS011;9122;48.406;9.984;2023-03-14T00:29:02;0.47;;;0.37;;
17993;SDS011;9122;48.406;9.984;2023-03-14T00:31:47;0.50;;;0.30;;
17993;SDS011;9122;48.406;9.984;2023-03-14T00:34:31;0.27;;;0.20;;
17993;SDS011;9122;48.406;9.984;2023-03-14T00:37:16;0.70;;;0.40;;
17993;SDS011;9122;48.406;9.984;2023-03-14T00:40:01;0.10;;;0.10;;
17993;SDS011;9122;48.406;9.984;2023-03-14T00:42:46;1.60;;;0.30;;
17993;SDS011;9122;48.406;9.984;2023-03-14T00:45:31;0.43;;;0.33;;
17993;SDS011;9122;48.406;9.984;2023-03-14T00:48:15;0.20;;;0.20;;
17993;SDS011;9122;48.406;9.984;2023-03-14T00:51:00;0.30;;;0.30;;
17993;SDS011;9122;48.406;9.984;2023-03-14T00:53:47;0.40;;;0.17;;
17993;SDS011;9122;48.406;9.984;2023-03-14T00:56:31;0.57;;;0.20;;
17993;SDS011;9122;48.406;9.984;2023-03-14T00:59:16;0.30;;;0.23;;
17993;SDS011;9122;48.406;9.984;2023-03-14T01:02:01;0.17;;;0.10;;
17993;SDS011;9122;48.406;9.984;2023-03-14T01:04:47;0.47;;;0.27;;
17993;SDS011;9122;48.406;9.984;2023-03-14T01:07:32;0.13;;;0.13;;
17993;SDS011;9122;48.406;9.984;2023-03-14T01:10:16;0.13;;;0.10;;
17993;SDS011;9122;48.406;9.984;2023-03-14T01:13:01;0.40;;;0.23;;
17993;SDS011;9122;48.406;9.984;2023-03-14T01:15:45;0.37;;;0.30;;
17993;SDS011;9122;48.406;9.984;2023-03-14T01:18:29;0.73;;;0.20;;
17993;SDS011;9122;48.406;9.984;2023-03-14T01:21:16;0.40;;;0.20;;
17993;SDS011;9122;48.406;9.984;2023-03-14T01:24:10;0.23;;;0.23;;
17993;SDS011;9122;48.406;9.984;2023-03-14T01:26:55;0.20;;;0.20;;
17993;SDS011;9122;48.406;9.984;2023-03-14T01:29:40;0.10;;;0.10;;
17993;SDS011;9122;48.406;9.984;2023-03-14T01:32:24;0.40;;;0.20;;
17993;SDS011;9122;48.406;9.984;2023-03-14T01:35:09;1.13;;;0.40;;
17993;SDS011;9122;48.406;9.984;2023-03-14T01:37:54;0.50;;;0.40;;
17993;SDS011;9122;48.406;9.984;2023-03-14T01:40:43;0.67;;;0.47;;
17993;SDS011;9122;48.406;9.984;2023-03-14T01:43:28;1.07;;;0.50;;
17993;SDS011;9122;48.406;9.984;2023-03-14T01:46:34;1.33;;;0.60;;
17993;SDS011;9122;48.406;9.984;2023-03-14T01:49:31;0.70;;;0.70;;
17993;SDS011;9122;48.406;9.984;2023-03-14T01:52:29;1.63;;;0.70;;
17993;SDS011;9122;48.406;9.984;2023-03-14T01:55:17;1.00;;;0.60;;
17993;SDS011;9122;48.406;9.984;2023-03-14T01:58:05;1.03;;;0.50;;
17993;SDS011;9122;48.406;9.984;2023-03-14T02:00:49;0.40;;;0.40;;
17993;SDS011;9122;48.406;9.984;2023-03-14T02:03:36;0.20;;;0.20;;
17993;SDS011;9122;48.406;9.984;2023-03-14T02:06:31;0.87;;;0.60;;
17993;SDS011;9122;48.406;9.984;2023-03-14T02:09:21;0.67;;;0.67;;
17993;SDS011;9122;48.406;9.984;2023-03-14T02:12:07;0.60;;;0.60;;
17993;SDS011;9122;48.406;9.984;2023-03-14T02:14:53;0.67;;;0.40;;
17993;SDS011;9122;48.406;9.984;2023-03-14T02:17:37;0.60;;;0.60;;
17993;SDS011;9122;48.406;9.984;2023-03-14T02:20:28;0.63;;;0.63;;
17993;SDS011;9122;48.406;9.984;2023-03-14T02:23:43;0.10;;;0.10;;
17993;SDS011;9122;48.406;9.984;2023-03-14T02:26:38;0.53;;;0.53;;
17993;SDS011;9122;48.406;9.984;2023-03-14T02:29:48;0.70;;;0.50;;
17993;SDS011;9122;48.406;9.984;2023-03-14T02:32:35;0.50;;;0.50;;
17993;SDS011;9122;48.406;9.984;2023-03-14T02:35:24;0.30;;;0.30;;
17993;SDS011;9122;48.406;9.984;2023-03-14T02:38:15;0.40;;;0.40;;
17993;SDS011;9122;48.406;9.984;2023-03-14T02:41:04;0.50;;;0.50;;
17993;SDS011;9122;48.406;9.984;2023-03-14T02:43:49;0.50;;;0.40;;
17993;SDS011;9122;48.406;9.984;2023-03-14T02:46:33;0.50;;;0.50;;
17993;SDS011;9122;48.406;9.984;2023-03-14T02:49:18;0.90;;;0.70;;
17993;SDS011;9122;48.406;9.984;2023-03-14T02:52:03;1.00;;;0.87;;
17993;SDS011;9122;48.406;9.984;2023-03-14T02:54:47;0.43;;;0.43;;
17993;SDS011;9122;48.406;9.984;2023-03-14T02:57:31;0.30;;;0.30;;
17993;SDS011;9122;48.406;9.984;2023-03-14T03:00:16;0.50;;;0.50;;
17993;SDS011;9122;48.406;9.984;2023-03-14T03:03:01;0.57;;;0.57;;
17993;SDS011;9122;48.406;9.984;2023-03-14T03:05:52;1.70;;;0.40;;
17993;SDS011;9122;48.406;9.984;2023-03-14T03:08:38;0.10;;;0.10;;
17993;SDS011;9122;48.406;9.984;2023-03-14T03:11:23;0.23;;;0.17;;
17993;SDS011;9122;48.406;9.984;2023-03-14T03:14:07;0.40;;;0.40;;
17993;SDS011;9122;48.406;9.984;2023-03-14T03:16:52;0.20;;;0.10;;
17993;SDS011;9122;48.406;9.984;2023-03-14T03:19:36;0.30;;;0.30;;
17993;SDS011;9122;48.406;9.984;2023-03-14T03:22:20;0.10;;;0.10;;
17993;SDS011;9122;48.406;9.984;2023-03-14T03:25:05;0.13;;;0.13;;
17993;SDS011;9122;48.406;9.984;2023-03-14T03:27:51;0.37;;;0.30;;
17993;SDS011;9122;48.406;9.984;2023-03-14T03:30:39;0.23;;;0.23;;
17993;SDS011;9122;48.406;9.984;2023-03-14T03:33:24;0.70;;;0.27;;
17993;SDS011;9122;48.406;9.984;2023-03-14T03:36:09;0.30;;;0.30;;
17993;SDS011;9122;48.406;9.984;2023-03-14T03:38:53;0.20;;;0.20;;
17993;SDS011;9122;48.406;9.984;2023-03-14T03:41:38;0.23;;;0.23;;
17993;SDS011;9122;48.406;9.984;2023-03-14T03:44:22;0.30;;;0.30;;
17993;SDS011;9122;48.406;9.984;2023-03-14T03:47:06;0.10;;;0.10;;
17993;SDS011;9122;48.406;9.984;2023-03-14T03:49:51;0.47;;;0.40;;
17993;SDS011;9122;48.406;9.984;2023-03-14T03:52:36;0.60;;;0.47;;
17993;SDS011;9122;48.406;9.984;2023-03-14T03:55:20;0.40;;;0.40;;
17993;SDS011;9122;48.406;9.984;2023-03-14T03:58:05;1.13;;;0.40;;
17993;SDS011;9122;48.406;9.984;2023-03-14T04:00:49;0.17;;;0.17;;
17993;SDS011;9122;48.406;9.984;2023-03-14T04:03:33;0.37;;;0.37;;
17993;SDS011;9122;48.406;9.984;2023-03-14T04:06:18;0.37;;;0.37;;
17993;SDS011;9122;48.406;9.984;2023-03-14T04:09:03;0.20;;;0.20;;
17993;SDS011;9122;48.406;9.984;2023-03-14T04:11:48;0.20;;;0.20;;
17993;SDS011;9122;48.406;9.984;2023-03-14T04:14:32;0.30;;;0.30;;
17993;SDS011;9122;48.406;9.984;2023-03-14T04:17:16;1.47;;;0.40;;
17993;SDS011;9122;48.406;9.984;2023-03-14T04:20:01;0.20;;;0.20;;
17993;SDS011;9122;48.406;9.984;2023-03-14T04:22:45;0.10;;;0.10;;
17993;SDS011;9122;48.406;9.984;2023-03-14T04:25:30;0.27;;;0.27;;
17993;SDS011;9122;48.406;9.984;2023-03-14T04:28:14;1.70;;;0.30;;
17993;SDS011;9122;48.406;9.984;2023-03-14T04:30:59;0.17;;;0.17;;
17993;SDS011;9122;48.406;9.984;2023-03-14T04:33:51;0.20;;;0.20;;
17993;SDS011;9122;48.406;9.984;2023-03-14T04:36:35;0.83;;;0.40;;
17993;SDS011;9122;48.406;9.984;2023-03-14T04:39:20;0.33;;;0.20;;
17993;SDS011;9122;48.406;9.984;2023-03-14T04:42:05;0.23;;;0.20;;
17993;SDS011;9122;48.406;9.984;2023-03-14T04:44:49;0.63;;;0.63;;
17993;SDS011;9122;48.406;9.984;2023-03-14T04:47:34;0.60;;;0.60;;
17993;SDS011;9122;48.406;9.984;2023-03-14T04:50:18;0.97;;;0.50;;
17993;SDS011;9122;48.406;9.984;2023-03-14T04:53:03;0.70;;;0.70;;
17993;SDS011;9122;48.406;9.984;2023-03-14T04:55:50;0.40;;;0.40;;
17993;SDS011;9122;48.406;9.984;2023-03-14T04:58:35;0.60;;;0.47;;
17993;SDS011;9122;48.406;9.984;2023-03-14T05:01:19;0.87;;;0.87;;
17993;SDS011;9122;48.406;9.984;2023-03-14T05:04:04;0.50;;;0.50;;
17993;SDS011;9122;48.406;9.984;2023-03-14T05:06:54;0.67;;;0.60;;
17993;SDS011;9122;48.406;9.984;2023-03-14T05:09:39;0.70;;;0.60;;
17993;SDS011;9122;48.406;9.984;2023-03-14T05:12:23;0.43;;;0.43;;
17993;SDS011;9122;48.406;9.984;2023-03-14T05:15:07;0.63;;;0.63;;
17993;SDS011;9122;48.406;9.984;2023-03-14T05:17:52;1.20;;;0.70;;
17993;SDS011;9122;48.406;9.984;2023-03-14T05:20:38;0.77;;;0.77;;
17993;SDS011;9122;48.406;9.984;2023-03-14T05:23:22;0.50;;;0.50;;
17993;SDS011;9122;48.406;9.984;2023-03-14T05:26:07;0.87;;;0.80;;
17993;SDS011;9122;48.406;9.984;2023-03-14T05:28:52;0.60;;;0.40;;
17993;SDS011;9122;48.406;9.984;2023-03-14T05:31:36;0.80;;;0.80;;
17993;SDS011;9122;48.406;9.984;2023-03-14T05:34:21;0.87;;;0.83;;
17993;SDS011;9122;48.406;9.984;2023-03-14T05:37:06;0.63;;;0.63;;
17993;SDS011;9122;48.406;9.984;2023-03-14T05:39:50;0.60;;;0.60;;
17993;SDS011;9122;48.406;9.984;2023-03-14T05:42:35;0.50;;;0.50;;
17993;SDS011;9122;48.406;9.984;2023-03-14T05:45:19;1.23;;;1.13;;
17993;SDS011;9122;48.406;9.984;2023-03-14T05:48:04;0.70;;;0.70;;
17993;SDS011;9122;48.406;9.984;2023-03-14T05:50:54;1.33;;;0.40;;
17993;SDS011;9122;48.406;9.984;2023-03-14T05:53:43;0.60;;;0.53;;
17993;SDS011;9122;48.406;9.984;2023-03-14T05:56:27;0.60;;;0.60;;
17993;SDS011;9122;48.406;9.984;2023-03-14T05:59:12;0.40;;;0.40;;
17993;SDS011;9122;48.406;9.984;2023-03-14T06:01:57;1.50;;;0.80;;
17993;SDS011;9122;48.406;9.984;2023-03-14T06:04:42;2.70;;;2.43;;
17993;SDS011;9122;48.406;9.984;2023-03-14T06:07:27;2.00;;;1.80;;
17993;SDS011;9122;48.406;9.984;2023-03-14T06:10:11;0.80;;;0.80;;
17993;SDS011;9122;48.406;9.984;2023-03-14T06:12:56;1.03;;;0.70;;
17993;SDS011;9122;48.406;9.984;2023-03-14T06:15:41;0.97;;;0.97;;
17993;SDS011;9122;48.406;9.984;2023-03-14T06:18:27;0.87;;;0.83;;
17993;SDS011;9122;48.406;9.984;2023-03-14T06:21:12;0.50;;;0.50;;
17993;SDS011;9122;48.406;9.984;2023-03-14T06:23:59;0.60;;;0.60;;
17993;SDS011;9122;48.406;9.984;2023-03-14T06:26:44;0.30;;;0.30;;
17993;SDS011;9122;48.406;9.984;2023-03-14T06:29:29;0.57;;;0.50;;
17993;SDS011;9122;48.406;9.984;2023-03-14T06:32:14;1.63;;;0.60;;
17993;SDS011;9122;48.406;9.984;2023-03-14T06:34:58;0.50;;;0.50;;
17993;SDS011;9122;48.406;9.984;2023-03-14T06:37:45;0.73;;;0.50;;
17993;SDS011;9122;48.406;9.984;2023-03-14T06:40:29;0.50;;;0.50;;
17993;SDS011;9122;48.406;9.984;2023-03-14T06:43:14;0.40;;;0.40;;
17993;SDS011;9122;48.406;9.984;2023-03-14T06:45:58;0.70;;;0.70;;
17993;SDS011;9122;48.406;9.984;2023-03-14T06:48:43;0.40;;;0.40;;
17993;SDS011;9122;48.406;9.984;2023-03-14T06:51:27;0.90;;;0.73;;
17993;SDS011;9122;48.406;9.984;2023-03-14T06:54:11;0.93;;;0.80;;
17993;SDS011;9122;48.406;9.984;2023-03-14T06:56:56;0.87;;;0.80;;
17993;SDS011;9122;48.406;9.984;2023-03-14T06:59:41;2.10;;;0.73;;
17993;SDS011;9122;48.406;9.984;2023-03-14T07:02:25;0.90;;;0.73;;
17993;SDS011;9122;48.406;9.984;2023-03-14T07:05:10;0.50;;;0.50;;
17993;SDS011;9122;48.406;9.984;2023-03-14T07:07:55;0.40;;;0.40;;
17993;SDS011;9122;48.406;9.984;2023-03-14T07:10:40;0.40;;;0.40;;
17993;SDS011;9122;48.406;9.984;2023-03-14T07:13:25;0.40;;;0.40;;
17993;SDS011;9122;48.406;9.984;2023-03-14T07:16:16;0.60;;;0.60;;
17993;SDS011;9122;48.406;9.984;2023-03-14T07:19:00;0.63;;;0.53;;
17993;SDS011;9122;48.406;9.984;2023-03-14T07:21:46;1.13;;;0.90;;
17993;SDS011;9122;48.406;9.984;2023-03-14T07:24:31;0.50;;;0.50;;
17993;SDS011;9122;48.406;9.984;2023-03-14T07:27:16;0.57;;;0.50;;
17993;SDS011;9122;48.406;9.984;2023-03-14T07:30:02;1.03;;;0.60;;
17993;SDS011;9122;48.406;9.984;2023-03-14T07:32:48;0.53;;;0.53;;
17993;SDS011;9122;48.406;9.984;2023-03-14T07:35:32;1.20;;;0.60;;
17993;SDS011;9122;48.406;9.984;2023-03-14T07:38:17;1.00;;;0.70;;
17993;SDS011;9122;48.406;9.984;2023-03-14T07:41:03;0.30;;;0.30;;
17993;SDS011;9122;48.406;9.984;2023-03-14T07:43:49;0.70;;;0.70;;
17993;SDS011;9122;48.406;9.984;2023-03-14T07:46:33;0.70;;;0.67;;
17993;SDS011;9122;48.406;9.984;2023-03-14T07:49:18;0.40;;;0.40;;
17993;SDS011;9122;48.406;9.984;2023-03-14T07:52:03;0.30;;;0.30;;
17993;SDS011;9122;48.406;9.984;2023-03-14T07:54:48;3.20;;;0.50;;
17993;SDS011;9122;48.406;9.984;2023-03-14T07:57:32;1.60;;;0.60;;
17993;SDS011;9122;48.406;9.984;2023-03-14T08:00:17;2.43;;;0.53;;
17993;SDS011;9122;48.406;9.984;2023-03-14T08:03:04;0.70;;;0.70;;
17993;SDS011;9122;48.406;9.984;2023-03-14T08:05:48;0.53;;;0.50;;
17993;SDS011;9122;48.406;9.984;2023-03-14T08:08:34;1.80;;;0.53;;
17993;SDS011;9122;48.406;9.984;2023-03-14T08:11:18;1.07;;;0.80;;
17993;SDS011;9122;48.406;9.984;2023-03-14T08:14:03;0.60;;;0.60;;
17993;SDS011;9122;48.406;9.984;2023-03-14T08:16:47;0.73;;;0.50;;
17993;SDS011;9122;48.406;9.984;2023-03-14T08:19:32;0.60;;;0.60;;
17993;SDS011;9122;48.406;9.984;2023-03-14T08:22:17;1.10;;;0.60;;
17993;SDS011;9122;48.406;9.984;2023-03-14T08:25:01;0.63;;;0.63;;
17993;SDS011;9122;48.406;9.984;2023-03-14T08:27:46;1.33;;;1.03;;
17993;SDS011;9122;48.406;9.984;2023-03-14T08:30:30;0.70;;;0.60;;
17993;SDS011;9122;48.406;9.984;2023-03-14T08:33:14;1.73;;;0.63;;
17993;SDS011;9122;48.406;9.984;2023-03-14T08:35:59;0.80;;;0.67;;
17993;SDS011;9122;48.406;9.984;2023-03-14T08:38:45;1.93;;;0.70;;
17993;SDS011;9122;48.406;9.984;2023-03-14T08:41:29;2.30;;;0.50;;
17993;SDS011;9122;48.406;9.984;2023-03-14T08:44:14;0.87;;;0.40;;
17993;SDS011;9122;48.406;9.984;2023-03-14T08:46:58;0.60;;;0.40;;
17993;SDS011;9122;48.406;9.984;2023-03-14T08:49:43;0.40;;;0.40;;
17993;SDS011;9122;48.406;9.984;2023-03-14T08:52:27;0.80;;;0.60;;
17993;SDS011;9122;48.406;9.984;2023-03-14T08:55:11;0.40;;;0.40;;
17993;SDS011;9122;48.406;9.984;2023-03-14T08:57:56;0.40;;;0.40;;
17993;SDS011;9122;48.406;9.984;2023-03-14T09:00:40;0.70;;;0.47;;
17993;SDS011;9122;48.406;9.984;2023-03-14T09:03:24;1.47;;;0.70;;
17993;SDS011;9122;48.406;9.984;2023-03-14T09:06:09;0.70;;;0.50;;
17993;SDS011;9122;48.406;9.984;2023-03-14T09:08:54;0.33;;;0.33;;
17993;SDS011;9122;48.406;9.984;2023-03-14T09:11:39;0.40;;;0.40;;
17993;SDS011;9122;48.406;9.984;2023-03-14T09:14:23;0.97;;;0.37;;
17993;SDS011;9122;48.406;9.984;2023-03-14T09:17:08;2.43;;;0.57;;
17993;SDS011;9122;48.406;9.984;2023-03-14T09:19:53;0.30;;;0.30;;
17993;SDS011;9122;48.406;9.984;2023-03-14T09:22:39;0.50;;;0.30;;
17993;SDS011;9122;48.406;9.984;2023-03-14T09:25:24;0.37;;;0.37;;
17993;SDS011;9122;48.406;9.984;2023-03-14T09:28:08;4.90;;;0.70;;
17993;SDS011;9122;48.406;9.984;2023-03-14T09:30:52;0.20;;;0.20;;
17993;SDS011;9122;48.406;9.984;2023-03-14T09:33:38;0.67;;;0.30;;
17993;SDS011;9122;48.406;9.984;2023-03-14T09:36:22;0.50;;;0.30;;
17993;SDS011;9122;48.406;9.984;2023-03-14T09:39:07;0.80;;;0.50;;
17993;SDS011;9122;48.406;9.984;2023-03-14T09:41:52;0.40;;;0.37;;
17993;SDS011;9122;48.406;9.984;2023-03-14T09:44:39;0.83;;;0.27;;
17993;SDS011;9122;48.406;9.984;2023-03-14T09:47:34;0.40;;;0.40;;
17993;SDS011;9122;48.406;9.984;2023-03-14T09:50:19;0.40;;;0.40;;
17993;SDS011;9122;48.406;9.984;2023-03-14T09:53:06;0.30;;;0.30;;
17993;SDS011;9122;48.406;9.984;2023-03-14T09:55:55;0.50;;;0.40;;
17993;SDS011;9122;48.406;9.984;2023-03-14T09:58:43;0.40;;;0.20;;
17993;SDS011;9122;48.406;9.984;2023-03-14T10:01:31;1.03;;;0.40;;
17993;SDS011;9122;48.406;9.984;2023-03-14T10:04:18;0.53;;;0.40;;
17993;SDS011;9122;48.406;9.984;2023-03-14T10:07:08;0.40;;;0.40;;
17993;SDS011;9122;48.406;9.984;2023-03-14T10:09:58;0.30;;;0.30;;
17993;SDS011;9122;48.406;9.984;2023-03-14T10:12:45;1.03;;;0.50;;
17993;SDS011;9122;48.406;9.984;2023-03-14T10:15:31;1.90;;;0.60;;
17993;SDS011;9122;48.406;9.984;2023-03-14T10:18:16;2.13;;;0.50;;
17993;SDS011;9122;48.406;9.984;2023-03-14T10:21:44;0.40;;;0.40;;
17993;SDS011;9122;48.406;9.984;2023-03-14T10:24:10;0.77;;;0.50;;
17993;SDS011;9122;48.406;9.984;2023-03-14T10:27:22;1.80;;;0.30;;
17993;SDS011;9122;48.406;9.984;2023-03-14T10:30:26;1.23;;;0.53;;
17993;SDS011;9122;48.406;9.984;2023-03-14T10:33:28;0.40;;;0.40;;
17993;SDS011;9122;48.406;9.984;2023-03-14T10:42:20;2.13;;;0.43;;
17993;SDS011;9122;48.406;9.984;2023-03-14T10:48:21;1.97;;;0.37;;
17993;SDS011;9122;48.406;9.984;2023-03-14T10:54:02;0.30;;;0.30;;
17993;SDS011;9122;48.406;9.984;2023-03-14T10:57:00;0.73;;;0.50;;
17993;SDS011;9122;48.406;9.984;2023-03-14T10:59:50;1.10;;;0.30;;
17993;SDS011;9122;48.406;9.984;2023-03-14T11:09:05;0.30;;;0.30;;
17993;SDS011;9122;48.406;9.984;2023-03-14T11:11:58;1.97;;;0.53;;
17993;SDS011;9122;48.406;9.984;2023-03-14T11:27:21;0.40;;;0.30;;
17993;SDS011;9122;48.406;9.984;2023-03-14T11:30:15;0.30;;;0.17;;
17993;SDS011;9122;48.406;9.984;2023-03-14T11:33:15;0.30;;;0.20;;
17993;SDS011;9122;48.406;9.984;2023-03-14T11:36:08;0.40;;;0.40;;
17993;SDS011;9122;48.406;9.984;2023-03-14T11:38:59;0.53;;;0.40;;
17993;SDS011;9122;48.406;9.984;2023-03-14T11:41:49;0.70;;;0.70;;
17993;SDS011;9122;48.406;9.984;2023-03-14T11:44:37;0.30;;;0.30;;
17993;SDS011;9122;48.406;9.984;2023-03-14T11:47:29;0.30;;;0.30;;
17993;SDS011;9122;48.406;9.984;2023-03-14T11:50:22;0.30;;;0.10;;
17993;SDS011;9122;48.406;9.984;2023-03-14T11:55:57;0.23;;;0.20;;
17993;SDS011;9122;48.406;9.984;2023-03-14T11:58:50;0.30;;;0.30;;
17993;SDS011;9122;48.406;9.984;2023-03-14T12:01:49;0.20;;;0.20;;
17993;SDS011;9122;48.406;9.984;2023-03-14T12:07:51;0.20;;;0.20;;
17993;SDS011;9122;48.406;9.984;2023-03-14T12:10:54;0.10;;;0.10;;
17993;SDS011;9122;48.406;9.984;2023-03-14T12:13:45;0.10;;;0.10;;
17993;SDS011;9122;48.406;9.984;2023-03-14T12:16:34;0.10;;;0.10;;
17993;SDS011;9122;48.406;9.984;2023-03-14T12:24:50;0.10;;;0.10;;
17993;SDS011;9122;48.406;9.984;2023-03-14T12:33:29;0.27;;;0.27;;
17993;SDS011;9122;48.406;9.984;2023-03-14T12:36:31;0.60;;;0.27;;
17993;SDS011;9122;48.406;9.984;2023-03-14T12:45:33;0.73;;;0.60;;
17993;SDS011;9122;48.406;9.984;2023-03-14T12:48:22;0.30;;;0.30;;
17993;SDS011;9122;48.406;9.984;2023-03-14T12:51:15;0.73;;;0.40;;
17993;SDS011;9122;48.406;9.984;2023-03-14T16:34:23;0.77;;;0.70;;
17993;SDS011;9122;48.406;9.984;2023-03-14T16:37:09;0.90;;;0.70;;
17993;SDS011;9122;48.406;9.984;2023-03-14T16:39:54;0.50;;;0.50;;
17993;SDS011;9122;48.406;9.984;2023-03-14T16:42:38;1.40;;;0.67;;
17993;SDS011;9122;48.406;9.984;2023-03-14T16:45:22;1.13;;;0.70;;
17993;SDS011;9122;48.406;9.984;2023-03-14T16:48:07;1.60;;;0.77;;
17993;SDS011;9122;48.406;9.984;2023-03-14T16:50:51;1.03;;;0.60;;
17993;SDS011;9122;48.406;9.984;2023-03-14T16:53:36;0.67;;;0.43;;
17993;SDS011;9122;48.406;9.984;2023-03-14T16:56:21;0.83;;;0.60;;
17993;SDS011;9122;48.406;9.984;2023-03-14T16:59:06;1.57;;;0.50;;
17993;SDS011;9122;48.406;9.984;2023-03-14T17:01:50;1.40;;;0.80;;
17993;SDS011;9122;48.406;9.984;2023-03-14T17:04:39;0.83;;;0.70;;
17993;SDS011;9122;48.406;9.984;2023-03-14T17:07:24;0.70;;;0.60;;
17993;SDS011;9122;48.406;9.984;2023-03-14T17:10:09;0.70;;;0.70;;
17993;SDS011;9122;48.406;9.984;2023-03-14T17:12:54;1.03;;;0.97;;
17993;SDS011;9122;48.406;9.984;2023-03-14T17:15:43;0.50;;;0.40;;
17993;SDS011;9122;48.406;9.984;2023-03-14T17:18:29;1.40;;;0.60;;
17993;SDS011;9122;48.406;9.984;2023-03-14T17:21:14;0.63;;;0.63;;
17993;SDS011;9122;48.406;9.984;2023-03-14T17:23:58;0.83;;;0.83;;
17993;SDS011;9122;48.406;9.984;2023-03-14T17:26:43;1.67;;;0.67;;
17993;SDS011;9122;48.406;9.984;2023-03-14T17:29:28;0.90;;;0.87;;
17993;SDS011;9122;48.406;9.984;2023-03-14T17:32:13;0.70;;;0.70;;
17993;SDS011;9122;48.406;9.984;2023-03-14T17:35:01;2.17;;;0.80;;
17993;SDS011;9122;48.406;9.984;2023-03-14T17:37:46;1.90;;;1.17;;
17993;SDS011;9122;48.406;9.984;2023-03-14T17:40:31;1.27;;;1.13;;
17993;SDS011;9122;48.406;9.984;2023-03-14T17:43:15;1.27;;;0.70;;
17993;SDS011;9122;48.406;9.984;2023-03-14T17:46:01;3.00;;;1.10;;
17993;SDS011;9122;48.406;9.984;2023-03-14T17:48:49;1.17;;;0.57;;
17993;SDS011;9122;48.406;9.984;2023-03-14T17:51:33;0.70;;;0.70;;
17993;SDS011;9122;48.406;9.984;2023-03-14T17:54:18;0.83;;;0.73;;
17993;SDS011;9122;48.406;9.984;2023-03-14T17:57:03;0.80;;;0.80;;
17993;SDS011;9122;48.406;9.984;2023-03-14T17:59:47;0.93;;;0.57;;
17993;SDS011;9122;48.406;9.984;2023-03-14T18:02:31;1.50;;;0.83;;
17993;SDS011;9122;48.406;9.984;2023-03-14T18:05:16;2.77;;;0.80;;
17993;SDS011;9122;48.406;9.984;2023-03-14T18:08:00;1.07;;;0.97;;
17993;SDS011;9122;48.406;9.984;2023-03-14T18:10:44;1.40;;;1.03;;
17993;SDS011;9122;48.406;9.984;2023-03-14T18:13:29;0.97;;;0.77;;
17993;SDS011;9122;48.406;9.984;2023-03-14T18:16:14;1.03;;;0.80;;
17993;SDS011;9122;48.406;9.984;2023-03-14T18:18:59;0.63;;;0.63;;
17993;SDS011;9122;48.406;9.984;2023-03-14T18:21:49;2.00;;;1.10;;
17993;SDS011;9122;48.406;9.984;2023-03-14T18:24:37;0.97;;;0.90;;
17993;SDS011;9122;48.406;9.984;2023-03-14T18:27:21;1.30;;;1.20;;
17993;SDS011;9122;48.406;9.984;2023-03-14T18:30:08;1.53;;;1.30;;
17993;SDS011;9122;48.406;9.984;2023-03-14T18:32:52;2.30;;;1.00;;
17993;SDS011;9122;48.406;9.984;2023-03-14T18:35:37;2.70;;;1.60;;
17993;SDS011;9122;48.406;9.984;2023-03-14T18:38:22;1.30;;;1.20;;
17993;SDS011;9122;48.406;9.984;2023-03-14T18:41:07;2.00;;;1.40;;
17993;SDS011;9122;48.406;9.984;2023-03-14T18:43:52;1.00;;;1.00;;
17993;SDS011;9122;48.406;9.984;2023-03-14T18:46:37;1.00;;;1.00;;
17993;SDS011;9122;48.406;9.984;2023-03-14T18:49:22;2.53;;;1.10;;
17993;SDS011;9122;48.406;9.984;2023-03-14T18:52:06;1.10;;;0.93;;
17993;SDS011;9122;48.406;9.984;2023-03-14T18:54:51;1.20;;;1.10;;
17993;SDS011;9122;48.406;9.984;2023-03-14T18:57:35;1.40;;;1.30;;
17993;SDS011;9122;48.406;9.984;2023-03-14T19:00:20;1.10;;;1.10;;
17993;SDS011;9122;48.406;9.984;2023-03-14T19:03:04;2.07;;;1.03;;
17993;SDS011;9122;48.406;9.984;2023-03-14T19:05:49;1.37;;;1.00;;
17993;SDS011;9122;48.406;9.984;2023-03-14T19:08:34;1.63;;;1.23;;
17993;SDS011;9122;48.406;9.984;2023-03-14T19:11:20;1.23;;;1.13;;
17993;SDS011;9122;48.406;9.984;2023-03-14T19:14:04;0.97;;;0.97;;
17993;SDS011;9122;48.406;9.984;2023-03-14T19:16:49;1.37;;;1.27;;
17993;SDS011;9122;48.406;9.984;2023-03-14T19:19:33;1.10;;;1.00;;
17993;SDS011;9122;48.406;9.984;2023-03-14T19:22:18;2.13;;;1.00;;
17993;SDS011;9122;48.406;9.984;2023-03-14T19:25:02;2.37;;;1.20;;
17993;SDS011;9122;48.406;9.984;2023-03-14T19:27:48;3.23;;;1.60;;
17993;SDS011;9122;48.406;9.984;2023-03-14T19:30:33;1.33;;;1.30;;
17993;SDS011;9122;48.406;9.984;2023-03-14T19:33:17;1.43;;;1.30;;
17993;SDS011;9122;48.406;9.984;2023-03-14T19:36:02;0.80;;;0.80;;
17993;SDS011;9122;48.406;9.984;2023-03-14T19:38:47;0.97;;;0.97;;
17993;SDS011;9122;48.406;9.984;2023-03-14T19:41:32;1.10;;;1.10;;
17993;SDS011;9122;48.406;9.984;2023-03-14T19:44:17;1.23;;;1.13;;
17993;SDS011;9122;48.406;9.984;2023-03-14T19:47:02;1.03;;;1.03;;
17993;SDS011;9122;48.406;9.984;2023-03-14T19:49:48;2.50;;;1.10;;
17993;SDS011;9122;48.406;9.984;2023-03-14T19:52:33;1.37;;;1.27;;
17993;SDS011;9122;48.406;9.984;2023-03-14T19:55:18;1.50;;;1.33;;
17993;SDS011;9122;48.406;9.984;2023-03-14T19:58:03;1.30;;;1.20;;
17993;SDS011;9122;48.406;9.984;2023-03-14T20:00:48;1.60;;;1.50;;
17993;SDS011;9122;48.406;9.984;2023-03-14T20:03:35;1.47;;;1.10;;
17993;SDS011;9122;48.406;9.984;2023-03-14T20:06:20;1.97;;;1.23;;
17993;SDS011;9122;48.406;9.984;2023-03-14T20:09:07;1.37;;;1.27;;
17993;SDS011;9122;48.406;9.984;2023-03-14T20:11:53;1.33;;;1.20;;
17993;SDS011;9122;48.406;9.984;2023-03-14T20:14:37;2.23;;;1.60;;
17993;SDS011;9122;48.406;9.984;2023-03-14T20:17:22;1.40;;;1.40;;
17993;SDS011;9122;48.406;9.984;2023-03-14T20:20:07;1.87;;;1.20;;
17993;SDS011;9122;48.406;9.984;2023-03-14T20:22:52;2.80;;;1.80;;
17993;SDS011;9122;48.406;9.984;2023-03-14T20:25:37;2.47;;;2.27;;
17993;SDS011;9122;48.406;9.984;2023-03-14T20:28:22;3.63;;;2.10;;
17993;SDS011;9122;48.406;9.984;2023-03-14T20:31:23;7.30;;;4.57;;
17993;SDS011;9122;48.406;9.984;2023-03-14T20:34:08;2.90;;;2.70;;
17993;SDS011;9122;48.406;9.984;2023-03-14T20:36:52;2.60;;;2.33;;
17993;SDS011;9122;48.406;9.984;2023-03-14T20:39:37;2.40;;;1.80;;
17993;SDS011;9122;48.406;9.984;2023-03-14T20:42:22;2.50;;;1.60;;
17993;SDS011;9122;48.406;9.984;2023-03-14T20:45:10;1.87;;;1.70;;
17993;SDS011;9122;48.406;9.984;2023-03-14T20:47:55;1.87;;;1.70;;
17993;SDS011;9122;48.406;9.984;2023-03-14T20:50:39;2.00;;;1.90;;
17993;SDS011;9122;48.406;9.984;2023-03-14T20:53:24;2.07;;;1.97;;
17993;SDS011;9122;48.406;9.984;2023-03-14T20:56:08;2.30;;;1.80;;
17993;SDS011;9122;48.406;9.984;2023-03-14T20:58:53;1.70;;;1.60;;
17993;SDS011;9122;48.406;9.984;2023-03-14T21:01:37;2.30;;;1.80;;
17993;SDS011;9122;48.406;9.984;2023-03-14T21:04:22;1.83;;;1.73;;
17993;SDS011;9122;48.406;9.984;2023-03-14T21:07:09;1.50;;;1.30;;
17993;SDS011;9122;48.406;9.984;2023-03-14T21:09:54;1.80;;;1.70;;
17993;SDS011;9122;48.406;9.984;2023-03-14T21:12:39;1.60;;;1.50;;
17993;SDS011;9122;48.406;9.984;2023-03-14T21:15:24;2.00;;;1.90;;
17993;SDS011;9122;48.406;9.984;2023-03-14T21:18:08;2.40;;;2.20;;
17993;SDS011;9122;48.406;9.984;2023-03-14T21:20:56;3.47;;;1.77;;
17993;SDS011;9122;48.406;9.984;2023-03-14T21:23:41;3.93;;;1.80;;
17993;SDS011;9122;48.406;9.984;2023-03-14T21:26:26;1.90;;;1.77;;
17993;SDS011;9122;48.406;9.984;2023-03-14T21:29:10;1.50;;;1.37;;
17993;SDS011;9122;48.406;9.984;2023-03-14T21:31:55;2.03;;;1.80;;